createdAt,value
2018-04-25T00:02:10.504Z,7.80
2018-04-25T00:04:38.741Z,8.37
2018-04-25T00:07:06.206Z,8.23
2018-04-25T00:09:33.694Z,7.97
2018-04-25T00:12:01.997Z,9.13
2018-04-25T00:14:29.482Z,8.87
2018-04-25T00:16:56.937Z,8.30
2018-04-25T00:19:24.431Z,7.83
2018-04-25T00:21:51.896Z,7.80
2018-04-25T00:24:20.212Z,8.20
2018-04-25T00:26:47.613Z,7.37
2018-04-25T00:29:15.094Z,7.90
2018-04-25T00:31:43.313Z,8.87
2018-04-25T00:34:10.825Z,7.97
2018-04-25T00:36:39.045Z,8.00
2018-04-25T00:39:06.520Z,9.60
2018-04-25T00:41:33.978Z,9.67
2018-04-25T00:44:01.464Z,9.77
2018-04-25T00:46:28.934Z,10.80
2018-04-25T00:48:57.186Z,11.27
2018-04-25T00:51:24.662Z,10.70
2018-04-25T00:53:52.944Z,8.67
2018-04-25T00:56:20.407Z,8.03
2018-04-25T00:58:48.654Z,8.83
2018-04-25T01:01:16.130Z,8.40
2018-04-25T01:03:44.383Z,8.73
2018-04-25T01:06:11.850Z,8.70
2018-04-25T01:08:39.326Z,9.37
2018-04-25T01:11:07.559Z,9.37
2018-04-25T01:13:35.035Z,9.37
2018-04-25T01:16:02.515Z,9.53
2018-04-25T01:18:30.761Z,9.27
2018-04-25T01:20:58.237Z,10.37
2018-04-25T01:23:26.487Z,9.80
2018-04-25T01:25:59.654Z,9.13
2018-04-25T01:28:33.801Z,11.87
2018-04-25T01:31:01.287Z,11.77
2018-04-25T01:33:41.409Z,10.70
2018-04-25T01:36:29.515Z,10.43
2018-04-25T01:38:56.990Z,10.93
2018-04-25T01:41:24.476Z,10.23
2018-04-25T01:43:51.970Z,10.07
2018-04-25T01:46:23.367Z,10.80
2018-04-25T01:48:56.479Z,8.93
2018-04-25T01:51:36.617Z,11.90
2018-04-25T01:54:16.082Z,10.33
2018-04-25T01:56:56.258Z,11.37
2018-04-25T01:59:35.635Z,13.00
2018-04-25T02:02:02.620Z,11.77
2018-04-25T02:04:30.871Z,12.93
2018-04-25T02:06:58.331Z,11.40
2018-04-25T02:09:25.816Z,13.33
2018-04-25T02:11:54.069Z,12.87
2018-04-25T02:14:21.549Z,13.13
2018-04-25T02:16:49.017Z,13.40
2018-04-25T02:19:16.528Z,17.20
2018-04-25T02:21:44.002Z,11.57
2018-04-25T02:24:11.475Z,11.13
2018-04-25T02:26:39.742Z,10.73
2018-04-25T02:29:07.970Z,11.10
2018-04-25T02:31:35.445Z,10.73
2018-04-25T02:34:02.918Z,11.47
2018-04-25T02:36:30.390Z,10.13
2018-04-25T02:38:58.637Z,10.03
2018-04-25T02:41:26.132Z,11.57
2018-04-25T02:43:54.367Z,10.60
2018-04-25T02:46:21.858Z,10.90
2018-04-25T02:48:49.322Z,10.30
2018-04-25T02:51:17.572Z,10.43
2018-04-25T02:53:45.047Z,10.13
2018-04-25T02:56:13.285Z,9.57
2018-04-25T02:58:40.742Z,11.83
2018-04-25T03:01:08.234Z,9.27
2018-04-25T03:03:36.479Z,10.13
2018-04-25T03:06:03.961Z,10.47
2018-04-25T03:08:31.420Z,9.97
2018-04-25T03:10:58.899Z,10.20
2018-04-25T03:13:27.121Z,9.63
2018-04-25T03:15:54.602Z,11.27
2018-04-25T03:18:22.058Z,10.10
2018-04-25T03:20:49.545Z,10.67
2018-04-25T03:23:17.769Z,13.67
2018-04-25T03:25:45.266Z,10.97
2018-04-25T03:28:13.510Z,11.00
2018-04-25T03:30:40.994Z,9.63
2018-04-25T03:33:09.231Z,10.70
2018-04-25T03:35:36.707Z,9.23
2018-04-25T03:38:04.189Z,10.00
2018-04-25T03:40:32.454Z,9.77
2018-04-25T03:42:59.913Z,9.40
2018-04-25T03:45:27.395Z,9.93
2018-04-25T03:47:55.627Z,8.73
2018-04-25T03:50:23.151Z,8.73
2018-04-25T03:52:50.643Z,9.17
2018-04-25T03:55:18.096Z,9.90
2018-04-25T03:57:45.581Z,9.33
2018-04-25T04:00:13.810Z,9.87
2018-04-25T04:02:41.364Z,9.27
2018-04-25T04:05:08.814Z,9.60
2018-04-25T04:07:36.301Z,10.63
2018-04-25T04:10:03.763Z,12.03
2018-04-25T04:12:31.237Z,8.93
2018-04-25T04:14:58.710Z,11.47
2018-04-25T04:17:26.205Z,9.40
2018-04-25T04:19:53.700Z,9.93
2018-04-25T04:22:22.144Z,9.30
2018-04-25T04:24:49.662Z,9.93
2018-04-25T04:27:17.975Z,9.47
2018-04-25T04:29:45.459Z,10.80
2018-04-25T04:32:13.918Z,9.87
2018-04-25T04:34:42.166Z,9.87
2018-04-25T04:37:10.404Z,9.00
2018-04-25T04:39:37.873Z,11.03
2018-04-25T04:42:05.363Z,10.60
2018-04-25T04:44:32.840Z,9.30
2018-04-25T04:47:00.326Z,10.70
2018-04-25T04:49:27.801Z,11.73
2018-04-25T04:51:55.274Z,9.63
2018-04-25T04:54:23.531Z,11.60
2018-04-25T04:56:51.012Z,9.87
2018-04-25T04:59:19.234Z,11.47
2018-04-25T05:01:46.726Z,10.93
2018-04-25T05:04:14.271Z,10.87
2018-04-25T05:06:41.756Z,11.57
2018-04-25T05:09:10.003Z,12.93
2018-04-25T05:11:37.497Z,12.37
2018-04-25T05:14:05.738Z,10.60
2018-04-25T05:16:33.219Z,14.93
2018-04-25T05:19:01.457Z,13.20
2018-04-25T05:21:28.955Z,11.43
2018-04-25T05:23:57.207Z,11.97
2018-04-25T05:26:24.687Z,11.57
2018-04-25T05:28:52.955Z,11.73
2018-04-25T05:31:20.471Z,11.53
2018-04-25T05:33:47.991Z,13.07
2018-04-25T05:36:15.483Z,13.80
2018-04-25T05:38:43.004Z,13.27
2018-04-25T05:41:10.449Z,15.60
2018-04-25T05:43:38.707Z,10.03
2018-04-25T05:46:06.268Z,11.67
2018-04-25T05:48:34.467Z,9.97
2018-04-25T05:51:02.725Z,13.67
2018-04-25T05:53:30.210Z,18.33
2018-04-25T05:55:57.683Z,9.93
2018-04-25T05:58:25.188Z,10.80
2018-04-25T06:00:52.667Z,11.70
2018-04-25T06:03:20.938Z,11.57
2018-04-25T06:05:48.402Z,10.03
2018-04-25T06:08:16.673Z,9.07
2018-04-25T06:10:44.132Z,8.77
2018-04-25T06:13:12.398Z,11.50
2018-04-25T06:15:39.875Z,10.73
2018-04-25T06:18:08.146Z,13.40
2018-04-25T06:20:36.405Z,10.33
2018-04-25T06:23:03.901Z,9.13
2018-04-25T06:25:31.389Z,9.53
2018-04-25T06:27:58.903Z,8.37
2018-04-25T06:30:27.154Z,11.13
2018-04-25T06:32:54.638Z,9.13
2018-04-25T06:35:22.903Z,12.47
2018-04-25T06:37:50.383Z,10.10
2018-04-25T06:40:17.844Z,10.90
2018-04-25T06:42:45.369Z,11.17
2018-04-25T06:45:12.857Z,10.80
2018-04-25T06:47:40.353Z,10.03
2018-04-25T06:50:08.601Z,10.63
2018-04-25T06:52:36.080Z,11.43
2018-04-25T06:55:03.561Z,11.90
2018-04-25T06:57:31.050Z,10.83
2018-04-25T06:59:59.289Z,10.70
2018-04-25T07:02:26.774Z,10.90
2018-04-25T07:04:55.036Z,12.27
2018-04-25T07:07:22.533Z,12.60
2018-04-25T07:09:50.056Z,13.47
2018-04-25T07:12:17.514Z,11.03
2018-04-25T07:14:45.034Z,11.53
2018-04-25T07:17:12.522Z,11.93
2018-04-25T07:19:40.006Z,13.33
2018-04-25T07:22:08.255Z,12.50
2018-04-25T07:24:35.774Z,13.13
2018-04-25T07:27:03.259Z,12.37
2018-04-25T07:29:30.818Z,11.80
2018-04-25T07:31:59.021Z,16.53
2018-04-25T07:34:27.317Z,11.43
2018-04-25T07:36:55.549Z,12.10
2018-04-25T07:39:23.057Z,13.60
2018-04-25T07:41:50.615Z,11.57
2018-04-25T07:44:18.087Z,13.03
2018-04-25T07:46:45.651Z,12.10
2018-04-25T07:49:13.145Z,12.43
2018-04-25T07:51:40.625Z,12.03
2018-04-25T07:54:08.891Z,13.73
2018-04-25T07:56:36.577Z,11.93
2018-04-25T07:59:04.853Z,13.43
2018-04-25T08:01:33.097Z,12.47
2018-04-25T08:04:00.591Z,12.83
2018-04-25T08:06:28.102Z,13.43
2018-04-25T08:08:55.607Z,12.43
2018-04-25T08:11:23.088Z,13.90
2018-04-25T08:14:02.399Z,15.27
2018-04-25T08:16:41.792Z,16.33
2018-04-25T08:19:21.094Z,13.20
2018-04-25T08:21:48.580Z,14.60
2018-04-25T08:24:16.156Z,14.37
2018-04-25T08:26:43.635Z,14.03
2018-04-25T08:29:11.203Z,13.83
2018-04-25T08:31:39.442Z,13.77
2018-04-25T08:34:06.948Z,14.17
2018-04-25T08:36:34.436Z,14.77
2018-04-25T08:39:02.238Z,14.57
2018-04-25T08:41:29.752Z,13.80
2018-04-25T08:43:57.229Z,14.90
2018-04-25T08:46:24.724Z,15.83
2018-04-25T08:48:53.014Z,14.43
2018-04-25T08:51:20.532Z,16.03
2018-04-25T08:53:48.017Z,16.10
2018-04-25T08:56:16.307Z,15.80
2018-04-25T08:58:44.553Z,14.20
2018-04-25T09:01:12.032Z,15.50
2018-04-25T09:03:40.298Z,13.30
2018-04-25T09:06:08.575Z,13.80
2018-04-25T09:08:36.109Z,12.83
2018-04-25T09:11:03.621Z,11.37
2018-04-25T09:13:31.178Z,11.70
2018-04-25T09:15:58.683Z,12.67
2018-04-25T09:18:26.191Z,14.67
2018-04-25T09:20:53.743Z,12.50
2018-04-25T09:23:21.241Z,10.93
2018-04-25T09:25:48.739Z,11.93
2018-04-25T09:28:16.315Z,10.93
2018-04-25T09:30:44.628Z,11.47
2018-04-25T09:33:12.109Z,11.80
2018-04-25T09:35:39.625Z,11.10
2018-04-25T09:38:07.109Z,11.27
2018-04-25T09:40:34.609Z,12.30
2018-04-25T09:43:02.124Z,15.07
2018-04-25T09:45:29.641Z,11.33
2018-04-25T09:47:57.133Z,11.30
2018-04-25T09:50:24.638Z,12.00
2018-04-25T09:52:52.937Z,11.40
2018-04-25T09:55:20.416Z,10.70
2018-04-25T09:57:47.926Z,11.53
2018-04-25T10:00:15.366Z,9.60
2018-04-25T10:02:42.862Z,10.33
2018-04-25T10:05:11.090Z,10.20
2018-04-25T10:07:38.595Z,9.90
2018-04-25T10:10:06.843Z,8.47
2018-04-25T10:12:34.331Z,9.80
2018-04-25T10:15:02.571Z,8.13
2018-04-25T10:17:30.083Z,7.67
2018-04-25T10:19:57.580Z,9.10
2018-04-25T10:22:25.090Z,7.60
2018-04-25T10:24:52.573Z,6.90
2018-04-25T10:27:20.075Z,6.77
2018-04-25T10:29:47.678Z,7.27
2018-04-25T10:32:15.163Z,5.57
2018-04-25T10:34:42.641Z,6.07
2018-04-25T10:37:10.154Z,5.83
2018-04-25T10:39:37.622Z,4.97
2018-04-25T10:42:05.121Z,6.97
2018-04-25T10:44:32.576Z,7.47
2018-04-25T10:47:00.070Z,5.20
2018-04-25T10:49:27.532Z,8.20
2018-04-25T10:51:55.025Z,8.90
2018-04-25T10:54:22.519Z,6.87
2018-04-25T10:56:50.008Z,8.67
2018-04-25T10:59:17.484Z,7.00
2018-04-25T11:01:44.977Z,5.73
2018-04-25T11:04:12.530Z,5.47
2018-04-25T11:06:40.099Z,5.50
2018-04-25T11:09:07.608Z,5.43
2018-04-25T11:11:35.096Z,7.00
2018-04-25T11:14:02.576Z,5.90
2018-04-25T11:16:30.067Z,4.93
2018-04-25T11:18:57.552Z,4.97
2018-04-25T11:21:25.043Z,5.30
2018-04-25T11:23:52.507Z,6.37
2018-04-25T11:26:19.984Z,5.00
2018-04-25T11:28:48.234Z,5.23
2018-04-25T11:31:15.713Z,5.87
2018-04-25T11:33:43.976Z,4.97
2018-04-25T11:36:11.433Z,4.27
2018-04-25T11:38:38.923Z,4.60
2018-04-25T11:41:06.399Z,3.60
2018-04-25T11:43:33.892Z,4.07
2018-04-25T11:46:01.382Z,3.60
2018-04-25T11:48:29.640Z,4.43
2018-04-25T11:50:57.114Z,3.60
2018-04-25T11:53:24.607Z,4.13
2018-04-25T11:55:52.097Z,2.57
2018-04-25T11:58:19.598Z,3.23
2018-04-25T12:00:47.100Z,2.60
2018-04-25T12:03:14.584Z,2.63
2018-04-25T12:05:42.051Z,3.57
2018-04-25T12:08:10.323Z,3.03
2018-04-25T12:10:37.808Z,3.20
2018-04-25T12:13:05.394Z,3.60
2018-04-25T12:15:33.581Z,3.07
2018-04-25T12:18:01.088Z,4.17
2018-04-25T12:20:29.337Z,4.57
2018-04-25T12:22:56.837Z,3.90
2018-04-25T12:25:24.343Z,4.03
2018-04-25T12:27:51.867Z,3.93
2018-04-25T12:30:19.336Z,4.20
2018-04-25T12:32:46.821Z,3.93
2018-04-25T12:35:14.285Z,6.67
2018-04-25T12:37:41.781Z,3.83
2018-04-25T12:40:09.270Z,3.83
2018-04-25T12:42:36.782Z,4.03
2018-04-25T12:45:05.036Z,4.60
2018-04-25T12:47:32.517Z,5.87
2018-04-25T12:50:00.776Z,4.77
2018-04-25T12:52:28.259Z,4.83
2018-04-25T12:54:55.805Z,5.80
2018-04-25T12:57:23.289Z,4.40
2018-04-25T12:59:50.769Z,4.67
2018-04-25T13:02:18.252Z,4.57
2018-04-25T13:04:45.743Z,4.10
2018-04-25T13:07:13.987Z,3.83
2018-04-25T13:09:41.469Z,3.73
2018-04-25T13:12:08.988Z,3.93
2018-04-25T13:14:36.503Z,6.30
2018-04-25T13:17:03.982Z,3.40
2018-04-25T13:19:31.463Z,4.07
2018-04-25T13:21:58.932Z,3.60
2018-04-25T13:24:26.480Z,3.35
2018-04-25T13:26:53.953Z,3.33
2018-04-25T13:29:21.450Z,3.25
2018-04-25T13:31:49.022Z,2.90
2018-04-25T13:34:16.513Z,3.47
2018-04-25T13:36:43.995Z,3.45
2018-04-25T13:39:11.543Z,3.85
2018-04-25T13:41:39.030Z,3.30
2018-04-25T13:44:07.295Z,5.28
2018-04-25T13:46:35.544Z,3.03
2018-04-25T13:49:03.074Z,2.92
2018-04-25T13:51:30.535Z,2.13
2018-04-25T13:53:58.028Z,2.27
2018-04-25T13:56:25.507Z,2.60
2018-04-25T13:58:53.751Z,2.63
2018-04-25T14:01:21.227Z,4.00
2018-04-25T14:03:48.712Z,2.60
2018-04-25T14:06:16.292Z,3.43
2018-04-25T14:08:43.726Z,4.03
2018-04-25T14:11:11.212Z,5.30
2018-04-25T14:13:38.707Z,3.77
2018-04-25T14:16:06.167Z,3.10
2018-04-25T14:18:33.644Z,2.77
2018-04-25T14:21:01.888Z,3.90
2018-04-25T14:23:29.400Z,3.80
2018-04-25T14:25:56.952Z,3.73
2018-04-25T14:28:24.470Z,2.70
2018-04-25T14:30:51.955Z,2.53
2018-04-25T14:33:20.185Z,3.40
2018-04-25T14:35:47.691Z,2.30
2018-04-25T14:38:15.939Z,3.67
2018-04-25T14:40:43.429Z,2.20
2018-04-25T14:43:11.674Z,2.33
2018-04-25T14:45:39.144Z,2.60
2018-04-25T14:48:07.391Z,2.87
2018-04-25T14:50:34.887Z,3.30
2018-04-25T14:53:03.125Z,2.87
2018-04-25T14:55:30.613Z,2.20
2018-04-25T14:57:58.092Z,2.30
2018-04-25T15:00:25.594Z,2.97
2018-04-25T15:02:53.066Z,2.20
2018-04-25T15:05:20.555Z,3.67
2018-04-25T15:07:48.818Z,2.67
2018-04-25T15:10:16.299Z,2.37
2018-04-25T15:12:43.799Z,2.43
2018-04-25T15:15:11.297Z,2.17
2018-04-25T15:17:39.534Z,3.27
2018-04-25T15:20:07.020Z,3.50
2018-04-25T15:22:34.512Z,3.70
2018-04-25T15:25:02.011Z,2.93
2018-04-25T15:27:29.499Z,2.67
2018-04-25T15:29:56.991Z,4.10
2018-04-25T15:32:24.526Z,2.40
2018-04-25T15:34:51.981Z,4.37
2018-04-25T15:37:20.213Z,3.20
2018-04-25T15:39:47.710Z,2.70
2018-04-25T15:42:15.957Z,2.60
2018-04-25T15:44:43.448Z,2.50
2018-04-25T15:47:10.935Z,3.00
2018-04-25T15:49:38.425Z,3.37
2018-04-25T15:52:05.898Z,3.83
2018-04-25T15:54:33.368Z,3.30
2018-04-25T15:57:00.850Z,3.33
2018-04-25T15:59:28.352Z,3.83
2018-04-25T16:01:55.843Z,4.03
2018-04-25T16:04:24.100Z,4.87
2018-04-25T16:06:51.720Z,6.17
2018-04-25T16:09:19.192Z,5.53
2018-04-25T16:12:00.327Z,4.97
2018-04-25T16:14:28.580Z,6.17
2018-04-25T16:16:56.080Z,6.90
2018-04-25T16:19:23.605Z,6.33
2018-04-25T16:21:51.099Z,6.30
2018-04-25T16:24:18.565Z,6.50
2018-04-25T16:26:46.080Z,6.13
2018-04-25T16:29:14.336Z,6.27
2018-04-25T16:31:41.855Z,7.00
2018-04-25T16:34:09.356Z,5.63
2018-04-25T16:36:36.844Z,7.00
2018-04-25T16:39:05.083Z,5.93
2018-04-25T16:41:32.604Z,6.00
2018-04-25T16:44:00.205Z,6.90
2018-04-25T16:46:27.734Z,6.43
2018-04-25T16:48:55.224Z,5.27
2018-04-25T16:51:22.729Z,4.83
2018-04-25T16:53:50.233Z,5.90
2018-04-25T16:56:17.720Z,4.70
2018-04-25T16:58:45.966Z,4.97
2018-04-25T17:01:13.481Z,4.97
2018-04-25T17:03:40.989Z,5.20
2018-04-25T17:06:08.543Z,5.87
2018-04-25T17:08:36.009Z,7.10
2018-04-25T17:11:03.509Z,6.53
2018-04-25T17:13:30.983Z,5.33
2018-04-25T17:15:58.484Z,5.73
2018-04-25T17:18:25.961Z,5.30
2018-04-25T17:20:54.271Z,5.37
2018-04-25T17:23:21.772Z,6.17
2018-04-25T17:25:49.278Z,8.87
2018-04-25T17:28:16.809Z,7.10
2018-04-25T17:30:44.346Z,11.27
2018-04-25T17:33:12.639Z,9.10
2018-04-25T17:35:40.175Z,7.80
2018-04-25T17:38:07.651Z,7.90
2018-04-25T17:40:35.126Z,7.00
2018-04-25T17:43:03.398Z,7.20
2018-04-25T17:45:30.935Z,10.47
2018-04-25T17:47:58.510Z,6.90
2018-04-25T17:50:26.094Z,8.03
2018-04-25T17:52:53.582Z,7.10
2018-04-25T17:55:21.063Z,8.40
2018-04-25T17:57:48.557Z,6.57
2018-04-25T18:00:16.173Z,8.33
2018-04-25T18:02:43.659Z,7.97
2018-04-25T18:05:11.204Z,7.40
2018-04-25T18:07:38.717Z,8.00
2018-04-25T18:10:06.214Z,7.90
2018-04-25T18:12:33.800Z,8.30
2018-04-25T18:15:01.308Z,10.33
2018-04-25T18:17:28.841Z,13.33
2018-04-25T18:19:56.325Z,12.10
2018-04-25T18:22:23.903Z,17.80
2018-04-25T18:24:52.092Z,16.73
2018-04-25T18:27:19.615Z,14.53
2018-04-25T18:29:47.279Z,22.37
2018-04-25T18:32:14.758Z,20.20
2018-04-25T18:34:42.272Z,12.80
2018-04-25T18:37:09.750Z,14.17
2018-04-25T18:39:37.264Z,11.50
2018-04-25T18:42:05.505Z,15.70
2018-04-25T18:44:33.064Z,19.30
2018-04-25T18:47:00.560Z,16.97
2018-04-25T18:49:28.851Z,16.20
2018-04-25T18:51:56.381Z,12.07
2018-04-25T18:54:23.912Z,15.27
2018-04-25T18:56:51.436Z,12.93
2018-04-25T18:59:18.967Z,17.33
2018-04-25T19:01:48.011Z,20.77
2018-04-25T19:04:15.542Z,18.13
2018-04-25T19:06:43.073Z,16.77
2018-04-25T19:09:11.369Z,16.53
2018-04-25T19:11:39.640Z,21.17
2018-04-25T19:14:07.934Z,13.50
2018-04-25T19:16:35.496Z,21.13
2018-04-25T19:19:02.994Z,17.33
2018-04-25T19:21:30.529Z,19.33
2018-04-25T19:23:58.103Z,15.20
2018-04-25T19:26:25.613Z,18.23
2018-04-25T19:28:53.859Z,17.40
2018-04-25T19:31:21.381Z,22.27
2018-04-25T19:33:48.876Z,21.10
2018-04-25T19:36:16.402Z,18.40
2018-04-25T19:38:43.876Z,16.97
2018-04-25T19:41:11.410Z,16.50
2018-04-25T19:43:38.885Z,17.17
2018-04-25T19:46:06.382Z,18.40
2018-04-25T19:48:34.644Z,19.40
2018-04-25T19:51:02.166Z,15.93
2018-04-25T19:53:29.647Z,20.80
2018-04-25T19:55:57.186Z,25.90
2018-04-25T19:58:24.666Z,20.43
2018-04-25T20:00:52.197Z,19.57
2018-04-25T20:03:19.680Z,24.20
2018-04-25T20:05:47.174Z,20.23
2018-04-25T20:08:15.448Z,22.50
2018-04-25T20:10:43.729Z,22.37
2018-04-25T20:13:12.011Z,22.73
2018-04-25T20:15:40.416Z,23.27
2018-04-25T20:18:07.952Z,27.03
2018-04-25T20:20:36.193Z,27.13
2018-04-25T20:23:03.702Z,27.00
2018-04-25T20:25:31.188Z,22.90
2018-04-25T20:27:58.706Z,25.23
2018-04-25T20:30:26.195Z,26.87
2018-04-25T20:32:53.705Z,29.10
2018-04-25T20:35:22.004Z,27.13
2018-04-25T20:37:49.521Z,25.70
2018-04-25T20:40:17.060Z,21.20
2018-04-25T20:42:44.663Z,23.70
2018-04-25T20:45:12.921Z,18.87
2018-04-25T20:47:40.411Z,25.73
2018-04-25T20:50:07.943Z,21.07
2018-04-25T20:52:36.214Z,29.83
2018-04-25T20:55:03.725Z,30.20
2018-04-25T20:57:31.204Z,24.73
2018-04-25T20:59:58.724Z,26.07
2018-04-25T21:02:26.233Z,22.63
2018-04-25T21:04:53.730Z,22.33
2018-04-25T21:07:21.228Z,24.10
2018-04-25T21:09:48.718Z,27.43
2018-04-25T21:12:16.224Z,25.10
2018-04-25T21:14:43.744Z,25.73
2018-04-25T21:17:11.230Z,23.73
2018-04-25T21:19:38.752Z,24.83
2018-04-25T21:22:06.218Z,22.37
2018-04-25T21:24:34.519Z,23.80
2018-04-25T21:27:02.005Z,36.83
2018-04-25T21:29:29.608Z,26.30
2018-04-25T21:31:57.096Z,32.90
2018-04-25T21:34:24.624Z,25.80
2018-04-25T21:36:52.876Z,28.83
2018-04-25T21:39:20.351Z,38.70
2018-04-25T21:41:47.878Z,33.40
2018-04-25T21:44:15.392Z,43.67
2018-04-25T21:46:43.673Z,46.80
2018-04-25T21:49:11.154Z,42.70
2018-04-25T21:51:38.671Z,36.30
2018-04-25T21:54:06.910Z,45.77
2018-04-25T21:56:34.432Z,51.73
2018-04-25T21:59:01.922Z,42.87
2018-04-25T22:01:29.432Z,44.47
2018-04-25T22:03:57.670Z,35.27
2018-04-25T22:06:25.177Z,37.60
2018-04-25T22:08:52.655Z,46.03
2018-04-25T22:11:20.171Z,39.90
2018-04-25T22:13:48.453Z,47.77
2018-04-25T22:16:16.732Z,36.83
2018-04-25T22:18:44.979Z,27.07
2018-04-25T22:21:12.488Z,30.20
2018-04-25T22:23:39.971Z,35.77
2018-04-25T22:26:07.481Z,30.07
2018-04-25T22:28:35.721Z,29.93
2018-04-25T22:31:03.203Z,37.43
2018-04-25T22:33:30.720Z,41.27
2018-04-25T22:35:58.198Z,45.43
2018-04-25T22:38:25.772Z,43.30
2018-04-25T22:40:54.797Z,43.83
2018-04-25T22:43:22.386Z,51.80
2018-04-25T22:45:49.867Z,51.63
2018-04-25T22:48:17.407Z,35.43
2018-04-25T22:50:44.870Z,34.63
2018-04-25T22:53:12.936Z,31.97
2018-04-25T22:55:40.419Z,35.73
2018-04-25T22:58:07.927Z,27.90
2018-04-25T23:00:35.405Z,27.93
2018-04-25T23:03:03.257Z,37.67
2018-04-25T23:05:30.750Z,40.17
2018-04-25T23:07:58.329Z,40.47
2018-04-25T23:10:25.772Z,39.07
2018-04-25T23:12:54.099Z,28.07
2018-04-25T23:15:21.580Z,32.30
2018-04-25T23:17:49.196Z,32.73
2018-04-25T23:20:17.471Z,28.10
2018-04-25T23:22:45.723Z,27.70
2018-04-25T23:25:13.231Z,40.63
2018-04-25T23:27:40.702Z,35.17
2018-04-25T23:30:08.219Z,33.47
2018-04-25T23:32:36.476Z,37.17
2018-04-25T23:35:03.979Z,43.50
2018-04-25T23:37:31.442Z,46.37
2018-04-25T23:39:58.945Z,45.13
2018-04-25T23:42:26.419Z,42.40
2018-04-25T23:44:54.029Z,43.43
2018-04-25T23:47:21.450Z,38.37
2018-04-25T23:49:49.700Z,39.07
2018-04-25T23:52:17.190Z,45.33
2018-04-25T23:54:44.704Z,35.30
2018-04-25T23:57:12.222Z,45.70
2018-04-25T23:59:39.709Z,32.87
